sensor_id;sensor_type;location;lat;lon;timestamp;P1;durP1;ratioP1;P2;durP2;ratioP2
75506;SDS011;64086;43.220;27.878;2024-01-25T00:00:17;24.75;;;16.33;;
75506;SDS011;64086;43.220;27.878;2024-01-25T00:02:43;21.20;;;15.30;;
75506;SDS011;64086;43.220;27.878;2024-01-25T00:05:08;23.08;;;15.02;;
75506;SDS011;64086;43.220;27.878;2024-01-25T00:07:34;21.23;;;14.85;;
75506;SDS011;64086;43.220;27.878;2024-01-25T00:10:00;23.75;;;16.10;;
75506;SDS011;64086;43.220;27.878;2024-01-25T00:12:26;26.08;;;16.67;;
75506;SDS011;64086;43.220;27.878;2024-01-25T00:14:51;20.92;;;15.50;;
75506;SDS011;64086;43.220;27.878;2024-01-25T00:17:17;23.25;;;16.23;;
75506;SDS011;64086;43.220;27.878;2024-01-25T00:19:43;22.27;;;15.23;;
75506;SDS011;64086;43.220;27.878;2024-01-25T00:22:09;21.65;;;15.82;;
75506;SDS011;64086;43.220;27.878;2024-01-25T00:24:34;21.60;;;15.00;;
75506;SDS011;64086;43.220;27.878;2024-01-25T00:27:01;21.88;;;14.85;;
75506;SDS011;64086;43.220;27.878;2024-01-25T00:29:27;22.13;;;14.75;;
75506;SDS011;64086;43.220;27.878;2024-01-25T00:31:55;22.33;;;15.45;;
75506;SDS011;64086;43.220;27.878;2024-01-25T00:34:21;22.23;;;14.73;;
75506;SDS011;64086;43.220;27.878;2024-01-25T00:36:47;21.75;;;14.68;;
75506;SDS011;64086;43.220;27.878;2024-01-25T00:39:13;22.20;;;14.68;;
75506;SDS011;64086;43.220;27.878;2024-01-25T00:41:38;21.45;;;14.38;;
75506;SDS011;64086;43.220;27.878;2024-01-25T00:44:05;26.08;;;14.75;;
75506;SDS011;64086;43.220;27.878;2024-01-25T00:46:31;22.83;;;15.32;;
75506;SDS011;64086;43.220;27.878;2024-01-25T00:48:57;24.15;;;15.25;;
75506;SDS011;64086;43.220;27.878;2024-01-25T00:51:22;23.38;;;16.40;;
75506;SDS011;64086;43.220;27.878;2024-01-25T00:53:48;24.08;;;15.98;;
75506;SDS011;64086;43.220;27.878;2024-01-25T00:56:14;22.73;;;16.73;;
75506;SDS011;64086;43.220;27.878;2024-01-25T00:58:40;24.23;;;16.90;;
75506;SDS011;64086;43.220;27.878;2024-01-25T01:01:06;24.75;;;16.58;;
75506;SDS011;64086;43.220;27.878;2024-01-25T01:03:31;26.00;;;17.85;;
75506;SDS011;64086;43.220;27.878;2024-01-25T01:05:57;28.52;;;18.10;;
75506;SDS011;64086;43.220;27.878;2024-01-25T01:08:23;28.23;;;18.90;;
75506;SDS011;64086;43.220;27.878;2024-01-25T01:10:49;30.70;;;19.83;;
75506;SDS011;64086;43.220;27.878;2024-01-25T01:13:14;32.15;;;20.95;;
75506;SDS011;64086;43.220;27.878;2024-01-25T01:15:40;29.50;;;19.88;;
75506;SDS011;64086;43.220;27.878;2024-01-25T01:18:05;30.52;;;19.88;;
75506;SDS011;64086;43.220;27.878;2024-01-25T01:20:31;28.98;;;20.02;;
75506;SDS011;64086;43.220;27.878;2024-01-25T01:22:56;30.77;;;20.27;;
75506;SDS011;64086;43.220;27.878;2024-01-25T01:25:22;32.40;;;20.00;;
75506;SDS011;64086;43.220;27.878;2024-01-25T01:27:47;31.65;;;20.27;;
75506;SDS011;64086;43.220;27.878;2024-01-25T01:30:13;31.83;;;20.35;;
75506;SDS011;64086;43.220;27.878;2024-01-25T01:32:38;32.75;;;20.98;;
75506;SDS011;64086;43.220;27.878;2024-01-25T01:35:04;30.55;;;20.80;;
75506;SDS011;64086;43.220;27.878;2024-01-25T01:37:30;32.90;;;20.55;;
75506;SDS011;64086;43.220;27.878;2024-01-25T01:39:55;31.33;;;20.33;;
75506;SDS011;64086;43.220;27.878;2024-01-25T01:42:21;35.00;;;20.48;;
75506;SDS011;64086;43.220;27.878;2024-01-25T01:44:48;35.45;;;21.88;;
75506;SDS011;64086;43.220;27.878;2024-01-25T01:47:15;30.75;;;20.48;;
75506;SDS011;64086;43.220;27.878;2024-01-25T01:49:40;33.55;;;21.50;;
75506;SDS011;64086;43.220;27.878;2024-01-25T01:52:06;30.25;;;21.42;;
75506;SDS011;64086;43.220;27.878;2024-01-25T01:54:32;30.15;;;20.67;;
75506;SDS011;64086;43.220;27.878;2024-01-25T01:56:57;32.40;;;19.88;;
75506;SDS011;64086;43.220;27.878;2024-01-25T01:59:23;33.70;;;20.45;;
75506;SDS011;64086;43.220;27.878;2024-01-25T02:01:51;29.17;;;20.33;;
75506;SDS011;64086;43.220;27.878;2024-01-25T02:04:17;33.08;;;21.10;;
75506;SDS011;64086;43.220;27.878;2024-01-25T02:06:42;28.42;;;19.48;;
75506;SDS011;64086;43.220;27.878;2024-01-25T02:09:08;28.58;;;19.77;;
75506;SDS011;64086;43.220;27.878;2024-01-25T02:11:35;30.02;;;19.35;;
75506;SDS011;64086;43.220;27.878;2024-01-25T02:14:00;31.77;;;19.80;;
75506;SDS011;64086;43.220;27.878;2024-01-25T02:16:26;31.00;;;20.10;;
75506;SDS011;64086;43.220;27.878;2024-01-25T02:18:51;29.52;;;19.10;;
75506;SDS011;64086;43.220;27.878;2024-01-25T02:21:19;30.13;;;18.73;;
75506;SDS011;64086;43.220;27.878;2024-01-25T02:23:45;29.60;;;20.38;;
75506;SDS011;64086;43.220;27.878;2024-01-25T02:26:10;27.20;;;19.05;;
75506;SDS011;64086;43.220;27.878;2024-01-25T02:28:36;26.83;;;19.02;;
75506;SDS011;64086;43.220;27.878;2024-01-25T02:31:01;30.00;;;20.45;;
75506;SDS011;64086;43.220;27.878;2024-01-25T02:33:27;30.40;;;20.45;;
75506;SDS011;64086;43.220;27.878;2024-01-25T02:35:53;30.02;;;20.10;;
75506;SDS011;64086;43.220;27.878;2024-01-25T02:38:19;29.02;;;19.45;;
75506;SDS011;64086;43.220;27.878;2024-01-25T02:40:44;28.92;;;19.30;;
75506;SDS011;64086;43.220;27.878;2024-01-25T02:43:10;27.30;;;18.38;;
75506;SDS011;64086;43.220;27.878;2024-01-25T02:45:35;24.60;;;17.85;;
75506;SDS011;64086;43.220;27.878;2024-01-25T02:48:01;25.85;;;17.65;;
75506;SDS011;64086;43.220;27.878;2024-01-25T02:50:29;23.98;;;16.45;;
75506;SDS011;64086;43.220;27.878;2024-01-25T02:52:55;25.85;;;17.38;;
75506;SDS011;64086;43.220;27.878;2024-01-25T02:55:20;29.58;;;16.67;;
75506;SDS011;64086;43.220;27.878;2024-01-25T02:57:46;23.60;;;15.13;;
75506;SDS011;64086;43.220;27.878;2024-01-25T03:00:12;22.05;;;15.15;;
75506;SDS011;64086;43.220;27.878;2024-01-25T03:02:38;21.60;;;14.35;;
75506;SDS011;64086;43.220;27.878;2024-01-25T03:05:04;21.95;;;13.70;;
75506;SDS011;64086;43.220;27.878;2024-01-25T03:07:29;21.92;;;13.60;;
75506;SDS011;64086;43.220;27.878;2024-01-25T03:09:55;18.55;;;12.45;;
75506;SDS011;64086;43.220;27.878;2024-01-25T03:12:20;19.45;;;13.05;;
75506;SDS011;64086;43.220;27.878;2024-01-25T03:14:46;24.02;;;15.75;;
75506;SDS011;64086;43.220;27.878;2024-01-25T03:17:11;27.63;;;16.60;;
75506;SDS011;64086;43.220;27.878;2024-01-25T03:19:37;26.98;;;15.50;;
75506;SDS011;64086;43.220;27.878;2024-01-25T03:22:03;28.15;;;15.82;;
75506;SDS011;64086;43.220;27.878;2024-01-25T03:24:28;24.48;;;15.15;;
75506;SDS011;64086;43.220;27.878;2024-01-25T03:26:54;22.08;;;14.85;;
75506;SDS011;64086;43.220;27.878;2024-01-25T03:29:19;23.38;;;16.23;;
75506;SDS011;64086;43.220;27.878;2024-01-25T03:31:45;24.58;;;14.95;;
75506;SDS011;64086;43.220;27.878;2024-01-25T03:34:10;22.40;;;14.90;;
75506;SDS011;64086;43.220;27.878;2024-01-25T03:36:37;21.40;;;14.10;;
75506;SDS011;64086;43.220;27.878;2024-01-25T03:39:04;23.88;;;14.35;;
75506;SDS011;64086;43.220;27.878;2024-01-25T03:41:30;23.23;;;14.20;;
75506;SDS011;64086;43.220;27.878;2024-01-25T03:43:56;22.83;;;14.38;;
75506;SDS011;64086;43.220;27.878;2024-01-25T03:46:21;20.77;;;13.93;;
75506;SDS011;64086;43.220;27.878;2024-01-25T03:48:47;24.35;;;16.55;;
75506;SDS011;64086;43.220;27.878;2024-01-25T03:51:12;22.83;;;15.73;;
75506;SDS011;64086;43.220;27.878;2024-01-25T03:53:38;25.33;;;17.08;;
75506;SDS011;64086;43.220;27.878;2024-01-25T03:56:03;24.83;;;17.45;;
75506;SDS011;64086;43.220;27.878;2024-01-25T03:58:29;27.02;;;18.92;;
75506;SDS011;64086;43.220;27.878;2024-01-25T04:00:55;26.42;;;18.13;;
75506;SDS011;64086;43.220;27.878;2024-01-25T04:03:20;23.65;;;17.20;;
75506;SDS011;64086;43.220;27.878;2024-01-25T04:05:46;28.40;;;18.75;;
75506;SDS011;64086;43.220;27.878;2024-01-25T04:08:11;26.20;;;18.50;;
75506;SDS011;64086;43.220;27.878;2024-01-25T04:10:37;26.02;;;18.73;;
75506;SDS011;64086;43.220;27.878;2024-01-25T04:13:02;27.85;;;19.10;;
75506;SDS011;64086;43.220;27.878;2024-01-25T04:15:32;27.13;;;18.92;;
75506;SDS011;64086;43.220;27.878;2024-01-25T04:17:57;24.60;;;17.02;;
75506;SDS011;64086;43.220;27.878;2024-01-25T04:20:23;24.33;;;17.05;;
75506;SDS011;64086;43.220;27.878;2024-01-25T04:22:48;23.63;;;16.42;;
75506;SDS011;64086;43.220;27.878;2024-01-25T04:25:15;26.30;;;16.83;;
75506;SDS011;64086;43.220;27.878;2024-01-25T04:27:40;23.70;;;16.83;;
75506;SDS011;64086;43.220;27.878;2024-01-25T04:30:07;29.20;;;18.52;;
75506;SDS011;64086;43.220;27.878;2024-01-25T04:32:33;25.95;;;17.70;;
75506;SDS011;64086;43.220;27.878;2024-01-25T04:34:58;26.98;;;18.13;;
75506;SDS011;64086;43.220;27.878;2024-01-25T04:37:24;25.15;;;16.67;;
75506;SDS011;64086;43.220;27.878;2024-01-25T04:39:49;26.92;;;17.00;;
75506;SDS011;64086;43.220;27.878;2024-01-25T04:42:15;28.17;;;17.95;;
75506;SDS011;64086;43.220;27.878;2024-01-25T04:44:40;32.10;;;19.13;;
75506;SDS011;64086;43.220;27.878;2024-01-25T04:47:07;25.70;;;18.13;;
75506;SDS011;64086;43.220;27.878;2024-01-25T04:49:33;31.45;;;20.23;;
75506;SDS011;64086;43.220;27.878;2024-01-25T04:51:59;32.88;;;21.17;;
75506;SDS011;64086;43.220;27.878;2024-01-25T04:54:25;32.53;;;22.25;;
75506;SDS011;64086;43.220;27.878;2024-01-25T04:56:51;33.22;;;22.23;;
75506;SDS011;64086;43.220;27.878;2024-01-25T04:59:16;31.10;;;21.48;;
75506;SDS011;64086;43.220;27.878;2024-01-25T05:01:42;35.20;;;22.23;;
75506;SDS011;64086;43.220;27.878;2024-01-25T05:04:07;38.75;;;23.30;;
75506;SDS011;64086;43.220;27.878;2024-01-25T05:06:33;32.47;;;22.27;;
75506;SDS011;64086;43.220;27.878;2024-01-25T05:08:58;35.55;;;23.45;;
75506;SDS011;64086;43.220;27.878;2024-01-25T05:11:24;36.85;;;24.08;;
75506;SDS011;64086;43.220;27.878;2024-01-25T05:13:49;35.80;;;22.95;;
75506;SDS011;64086;43.220;27.878;2024-01-25T05:16:15;38.45;;;23.67;;
75506;SDS011;64086;43.220;27.878;2024-01-25T05:18:41;35.88;;;24.13;;
75506;SDS011;64086;43.220;27.878;2024-01-25T05:21:06;36.75;;;24.15;;
75506;SDS011;64086;43.220;27.878;2024-01-25T05:23:32;35.50;;;23.90;;
75506;SDS011;64086;43.220;27.878;2024-01-25T05:25:57;40.60;;;25.50;;
75506;SDS011;64086;43.220;27.878;2024-01-25T05:28:23;43.53;;;27.52;;
75506;SDS011;64086;43.220;27.878;2024-01-25T05:30:49;49.03;;;28.05;;
75506;SDS011;64086;43.220;27.878;2024-01-25T05:33:15;52.38;;;30.05;;
75506;SDS011;64086;43.220;27.878;2024-01-25T05:35:42;50.17;;;28.42;;
75506;SDS011;64086;43.220;27.878;2024-01-25T05:38:07;40.92;;;26.75;;
75506;SDS011;64086;43.220;27.878;2024-01-25T05:40:33;39.00;;;25.38;;
75506;SDS011;64086;43.220;27.878;2024-01-25T05:42:59;42.83;;;25.25;;
75506;SDS011;64086;43.220;27.878;2024-01-25T05:45:24;43.53;;;25.85;;
75506;SDS011;64086;43.220;27.878;2024-01-25T05:47:51;41.05;;;25.40;;
75506;SDS011;64086;43.220;27.878;2024-01-25T05:50:16;40.63;;;25.73;;
75506;SDS011;64086;43.220;27.878;2024-01-25T05:52:42;38.03;;;25.60;;
75506;SDS011;64086;43.220;27.878;2024-01-25T05:55:07;40.33;;;24.00;;
75506;SDS011;64086;43.220;27.878;2024-01-25T05:57:34;36.00;;;25.10;;
75506;SDS011;64086;43.220;27.878;2024-01-25T06:00:01;38.30;;;25.17;;
75506;SDS011;64086;43.220;27.878;2024-01-25T06:02:26;34.53;;;24.15;;
75506;SDS011;64086;43.220;27.878;2024-01-25T06:04:52;35.80;;;24.95;;
75506;SDS011;64086;43.220;27.878;2024-01-25T06:07:17;38.95;;;24.88;;
75506;SDS011;64086;43.220;27.878;2024-01-25T06:09:43;36.30;;;25.20;;
75506;SDS011;64086;43.220;27.878;2024-01-25T06:12:08;37.92;;;24.65;;
75506;SDS011;64086;43.220;27.878;2024-01-25T06:14:34;30.20;;;22.20;;
75506;SDS011;64086;43.220;27.878;2024-01-25T06:16:59;31.25;;;20.10;;
75506;SDS011;64086;43.220;27.878;2024-01-25T06:19:25;23.63;;;16.00;;
75506;SDS011;64086;43.220;27.878;2024-01-25T06:21:50;21.70;;;15.55;;
75506;SDS011;64086;43.220;27.878;2024-01-25T06:24:17;19.42;;;14.63;;
75506;SDS011;64086;43.220;27.878;2024-01-25T06:26:42;21.55;;;14.15;;
75506;SDS011;64086;43.220;27.878;2024-01-25T06:29:08;15.45;;;11.45;;
75506;SDS011;64086;43.220;27.878;2024-01-25T06:31:40;17.60;;;12.63;;
75506;SDS011;64086;43.220;27.878;2024-01-25T06:34:07;15.48;;;11.57;;
75506;SDS011;64086;43.220;27.878;2024-01-25T06:36:32;16.40;;;12.23;;
75506;SDS011;64086;43.220;27.878;2024-01-25T06:38:58;15.45;;;11.27;;
75506;SDS011;64086;43.220;27.878;2024-01-25T06:41:23;18.08;;;12.63;;
75506;SDS011;64086;43.220;27.878;2024-01-25T06:43:49;17.60;;;12.60;;
75506;SDS011;64086;43.220;27.878;2024-01-25T06:46:15;16.80;;;12.18;;
75506;SDS011;64086;43.220;27.878;2024-01-25T06:48:40;16.65;;;12.45;;
75506;SDS011;64086;43.220;27.878;2024-01-25T06:51:06;15.52;;;12.18;;
75506;SDS011;64086;43.220;27.878;2024-01-25T06:53:31;14.05;;;11.63;;
75506;SDS011;64086;43.220;27.878;2024-01-25T06:55:57;15.05;;;11.07;;
75506;SDS011;64086;43.220;27.878;2024-01-25T06:58:22;18.17;;;11.10;;
75506;SDS011;64086;43.220;27.878;2024-01-25T07:00:48;10.18;;;9.00;;
75506;SDS011;64086;43.220;27.878;2024-01-25T07:03:14;11.40;;;9.32;;
75506;SDS011;64086;43.220;27.878;2024-01-25T07:05:40;11.65;;;8.43;;
75506;SDS011;64086;43.220;27.878;2024-01-25T07:08:06;8.23;;;6.75;;
75506;SDS011;64086;43.220;27.878;2024-01-25T07:10:34;8.07;;;6.85;;
75506;SDS011;64086;43.220;27.878;2024-01-25T07:13:00;9.73;;;7.15;;
75506;SDS011;64086;43.220;27.878;2024-01-25T07:15:25;8.25;;;7.30;;
75506;SDS011;64086;43.220;27.878;2024-01-25T07:17:51;10.18;;;7.65;;
75506;SDS011;64086;43.220;27.878;2024-01-25T07:20:16;9.55;;;7.70;;
75506;SDS011;64086;43.220;27.878;2024-01-25T07:22:42;11.18;;;7.93;;
75506;SDS011;64086;43.220;27.878;2024-01-25T07:25:07;10.38;;;8.57;;
75506;SDS011;64086;43.220;27.878;2024-01-25T07:27:33;11.18;;;8.13;;
75506;SDS011;64086;43.220;27.878;2024-01-25T07:29:58;9.30;;;8.13;;
75506;SDS011;64086;43.220;27.878;2024-01-25T07:32:24;8.32;;;7.43;;
75506;SDS011;64086;43.220;27.878;2024-01-25T07:34:50;9.60;;;8.30;;
75506;SDS011;64086;43.220;27.878;2024-01-25T07:37:16;10.35;;;8.25;;
75506;SDS011;64086;43.220;27.878;2024-01-25T07:39:43;8.82;;;7.90;;
75506;SDS011;64086;43.220;27.878;2024-01-25T07:42:09;8.85;;;7.93;;
75506;SDS011;64086;43.220;27.878;2024-01-25T07:44:35;8.82;;;7.30;;
75506;SDS011;64086;43.220;27.878;2024-01-25T07:47:00;10.77;;;8.57;;
75506;SDS011;64086;43.220;27.878;2024-01-25T07:49:27;10.35;;;8.13;;
75506;SDS011;64086;43.220;27.878;2024-01-25T07:51:52;11.90;;;8.15;;
75506;SDS011;64086;43.220;27.878;2024-01-25T07:54:18;10.48;;;8.77;;
75506;SDS011;64086;43.220;27.878;2024-01-25T07:56:43;12.60;;;8.90;;
75506;SDS011;64086;43.220;27.878;2024-01-25T07:59:09;11.77;;;9.45;;
75506;SDS011;64086;43.220;27.878;2024-01-25T08:01:35;12.38;;;8.73;;
75506;SDS011;64086;43.220;27.878;2024-01-25T08:04:00;10.38;;;8.38;;
75506;SDS011;64086;43.220;27.878;2024-01-25T08:06:26;11.32;;;8.30;;
75506;SDS011;64086;43.220;27.878;2024-01-25T08:08:52;10.60;;;8.32;;
75506;SDS011;64086;43.220;27.878;2024-01-25T08:11:17;10.80;;;7.68;;
75506;SDS011;64086;43.220;27.878;2024-01-25T08:13:45;11.57;;;8.40;;
75506;SDS011;64086;43.220;27.878;2024-01-25T08:16:11;13.55;;;7.60;;
75506;SDS011;64086;43.220;27.878;2024-01-25T08:18:36;9.60;;;7.60;;
75506;SDS011;64086;43.220;27.878;2024-01-25T08:21:02;10.95;;;7.95;;
75506;SDS011;64086;43.220;27.878;2024-01-25T08:23:27;12.57;;;7.30;;
75506;SDS011;64086;43.220;27.878;2024-01-25T08:25:53;9.60;;;7.47;;
75506;SDS011;64086;43.220;27.878;2024-01-25T08:28:18;12.52;;;7.28;;
75506;SDS011;64086;43.220;27.878;2024-01-25T08:30:45;11.70;;;7.38;;
75506;SDS011;64086;43.220;27.878;2024-01-25T08:33:10;8.80;;;6.97;;
75506;SDS011;64086;43.220;27.878;2024-01-25T08:35:36;10.63;;;7.10;;
75506;SDS011;64086;43.220;27.878;2024-01-25T08:38:02;10.98;;;7.30;;
75506;SDS011;64086;43.220;27.878;2024-01-25T08:40:27;13.95;;;7.97;;
75506;SDS011;64086;43.220;27.878;2024-01-25T08:42:53;13.43;;;7.93;;
75506;SDS011;64086;43.220;27.878;2024-01-25T08:45:18;16.15;;;8.50;;
75506;SDS011;64086;43.220;27.878;2024-01-25T08:47:44;12.75;;;7.60;;
75506;SDS011;64086;43.220;27.878;2024-01-25T08:50:11;11.32;;;7.63;;
75506;SDS011;64086;43.220;27.878;2024-01-25T08:52:36;11.25;;;7.45;;
75506;SDS011;64086;43.220;27.878;2024-01-25T08:55:05;9.95;;;7.57;;
75506;SDS011;64086;43.220;27.878;2024-01-25T08:57:31;9.93;;;7.28;;
75506;SDS011;64086;43.220;27.878;2024-01-25T08:59:56;11.32;;;7.88;;
75506;SDS011;64086;43.220;27.878;2024-01-25T09:02:23;11.82;;;7.80;;
75506;SDS011;64086;43.220;27.878;2024-01-25T09:04:51;12.25;;;7.95;;
75506;SDS011;64086;43.220;27.878;2024-01-25T09:07:18;16.25;;;7.85;;
75506;SDS011;64086;43.220;27.878;2024-01-25T09:09:44;10.13;;;7.18;;
75506;SDS011;64086;43.220;27.878;2024-01-25T09:12:10;10.50;;;7.20;;
75506;SDS011;64086;43.220;27.878;2024-01-25T09:14:37;10.80;;;6.10;;
75506;SDS011;64086;43.220;27.878;2024-01-25T09:17:03;11.13;;;7.13;;
75506;SDS011;64086;43.220;27.878;2024-01-25T09:19:29;10.05;;;6.18;;
75506;SDS011;64086;43.220;27.878;2024-01-25T09:21:55;8.35;;;5.80;;
75506;SDS011;64086;43.220;27.878;2024-01-25T09:24:22;10.00;;;5.70;;
75506;SDS011;64086;43.220;27.878;2024-01-25T09:26:47;10.60;;;6.07;;
75506;SDS011;64086;43.220;27.878;2024-01-25T09:29:12;9.88;;;6.28;;
75506;SDS011;64086;43.220;27.878;2024-01-25T09:31:38;10.73;;;6.32;;
75506;SDS011;64086;43.220;27.878;2024-01-25T09:34:03;10.70;;;6.97;;
75506;SDS011;64086;43.220;27.878;2024-01-25T09:36:29;9.57;;;6.82;;
75506;SDS011;64086;43.220;27.878;2024-01-25T09:38:54;10.27;;;6.55;;
75506;SDS011;64086;43.220;27.878;2024-01-25T09:41:20;10.90;;;6.93;;
75506;SDS011;64086;43.220;27.878;2024-01-25T09:43:46;8.15;;;6.00;;
75506;SDS011;64086;43.220;27.878;2024-01-25T09:46:12;7.80;;;5.70;;
75506;SDS011;64086;43.220;27.878;2024-01-25T09:48:38;10.75;;;5.80;;
75506;SDS011;64086;43.220;27.878;2024-01-25T09:51:05;8.63;;;5.68;;
75506;SDS011;64086;43.220;27.878;2024-01-25T09:53:31;9.90;;;6.28;;
75506;SDS011;64086;43.220;27.878;2024-01-25T09:56:05;9.68;;;5.40;;
75506;SDS011;64086;43.220;27.878;2024-01-25T09:58:36;12.75;;;5.82;;
75506;SDS011;64086;43.220;27.878;2024-01-25T10:01:10;12.60;;;5.45;;
75506;SDS011;64086;43.220;27.878;2024-01-25T10:03:36;8.52;;;5.32;;
75506;SDS011;64086;43.220;27.878;2024-01-25T10:06:02;7.88;;;5.25;;
75506;SDS011;64086;43.220;27.878;2024-01-25T10:08:29;7.25;;;5.07;;
75506;SDS011;64086;43.220;27.878;2024-01-25T10:10:55;8.80;;;5.13;;
75506;SDS011;64086;43.220;27.878;2024-01-25T10:13:20;10.85;;;5.65;;
75506;SDS011;64086;43.220;27.878;2024-01-25T10:15:46;11.13;;;5.60;;
75506;SDS011;64086;43.220;27.878;2024-01-25T10:18:13;9.00;;;5.43;;
75506;SDS011;64086;43.220;27.878;2024-01-25T10:20:39;9.23;;;4.70;;
75506;SDS011;64086;43.220;27.878;2024-01-25T10:23:08;10.18;;;5.80;;
75506;SDS011;64086;43.220;27.878;2024-01-25T10:25:36;8.35;;;5.45;;
75506;SDS011;64086;43.220;27.878;2024-01-25T10:28:03;6.70;;;4.88;;
75506;SDS011;64086;43.220;27.878;2024-01-25T10:30:32;9.35;;;5.43;;
75506;SDS011;64086;43.220;27.878;2024-01-25T10:32:58;7.20;;;5.13;;
75506;SDS011;64086;43.220;27.878;2024-01-25T10:35:27;10.20;;;5.90;;
75506;SDS011;64086;43.220;27.878;2024-01-25T10:37:53;9.15;;;5.07;;
75506;SDS011;64086;43.220;27.878;2024-01-25T10:40:19;12.20;;;7.05;;
75506;SDS011;64086;43.220;27.878;2024-01-25T10:42:45;8.55;;;5.32;;
75506;SDS011;64086;43.220;27.878;2024-01-25T10:45:11;10.27;;;5.13;;
75506;SDS011;64086;43.220;27.878;2024-01-25T10:47:37;7.95;;;4.63;;
75506;SDS011;64086;43.220;27.878;2024-01-25T10:50:06;9.02;;;5.50;;
75506;SDS011;64086;43.220;27.878;2024-01-25T10:52:34;8.60;;;5.50;;
75506;SDS011;64086;43.220;27.878;2024-01-25T10:55:01;10.13;;;5.35;;
75506;SDS011;64086;43.220;27.878;2024-01-25T10:57:35;9.15;;;5.70;;
75506;SDS011;64086;43.220;27.878;2024-01-25T11:00:09;7.07;;;4.70;;
75506;SDS011;64086;43.220;27.878;2024-01-25T11:02:36;12.45;;;4.97;;
75506;SDS011;64086;43.220;27.878;2024-01-25T11:05:05;8.27;;;4.80;;
75506;SDS011;64086;43.220;27.878;2024-01-25T11:07:45;8.03;;;5.60;;
75506;SDS011;64086;43.220;27.878;2024-01-25T11:10:17;7.88;;;4.85;;
75506;SDS011;64086;43.220;27.878;2024-01-25T11:12:50;8.68;;;5.38;;
75506;SDS011;64086;43.220;27.878;2024-01-25T11:15:20;8.93;;;4.88;;
75506;SDS011;64086;43.220;27.878;2024-01-25T11:17:53;8.50;;;5.43;;
75506;SDS011;64086;43.220;27.878;2024-01-25T11:20:26;7.43;;;4.53;;
75506;SDS011;64086;43.220;27.878;2024-01-25T11:23:10;9.43;;;5.43;;
75506;SDS011;64086;43.220;27.878;2024-01-25T11:25:40;10.43;;;4.85;;
75506;SDS011;64086;43.220;27.878;2024-01-25T11:28:05;11.80;;;5.28;;
75506;SDS011;64086;43.220;27.878;2024-01-25T11:30:33;8.02;;;5.10;;
75506;SDS011;64086;43.220;27.878;2024-01-25T11:32:59;9.98;;;5.60;;
75506;SDS011;64086;43.220;27.878;2024-01-25T11:35:25;9.90;;;5.32;;
75506;SDS011;64086;43.220;27.878;2024-01-25T11:37:50;9.05;;;4.75;;
75506;SDS011;64086;43.220;27.878;2024-01-25T11:40:17;11.77;;;4.82;;
75506;SDS011;64086;43.220;27.878;2024-01-25T11:42:44;8.40;;;4.93;;
75506;SDS011;64086;43.220;27.878;2024-01-25T11:45:11;12.77;;;6.13;;
75506;SDS011;64086;43.220;27.878;2024-01-25T11:47:37;8.32;;;5.07;;
75506;SDS011;64086;43.220;27.878;2024-01-25T11:50:03;9.45;;;5.05;;
75506;SDS011;64086;43.220;27.878;2024-01-25T11:52:29;7.25;;;4.97;;
75506;SDS011;64086;43.220;27.878;2024-01-25T11:54:58;7.90;;;5.00;;
75506;SDS011;64086;43.220;27.878;2024-01-25T11:57:23;8.82;;;4.90;;
75506;SDS011;64086;43.220;27.878;2024-01-25T11:59:49;7.55;;;4.90;;
75506;SDS011;64086;43.220;27.878;2024-01-25T12:02:14;7.40;;;4.60;;
75506;SDS011;64086;43.220;27.878;2024-01-25T12:04:40;6.35;;;4.90;;
75506;SDS011;64086;43.220;27.878;2024-01-25T12:07:06;9.63;;;4.93;;
75506;SDS011;64086;43.220;27.878;2024-01-25T12:09:32;8.73;;;5.18;;
75506;SDS011;64086;43.220;27.878;2024-01-25T12:11:59;8.75;;;5.25;;
75506;SDS011;64086;43.220;27.878;2024-01-25T12:14:25;8.75;;;5.63;;
75506;SDS011;64086;43.220;27.878;2024-01-25T12:16:54;9.52;;;5.45;;
75506;SDS011;64086;43.220;27.878;2024-01-25T12:19:20;9.57;;;6.70;;
75506;SDS011;64086;43.220;27.878;2024-01-25T12:21:46;12.32;;;7.35;;
75506;SDS011;64086;43.220;27.878;2024-01-25T12:24:12;10.02;;;5.88;;
75506;SDS011;64086;43.220;27.878;2024-01-25T12:26:38;11.30;;;6.15;;
75506;SDS011;64086;43.220;27.878;2024-01-25T12:29:04;9.23;;;5.88;;
75506;SDS011;64086;43.220;27.878;2024-01-25T12:31:30;10.15;;;5.47;;
75506;SDS011;64086;43.220;27.878;2024-01-25T12:33:56;11.75;;;5.78;;
75506;SDS011;64086;43.220;27.878;2024-01-25T12:36:22;9.38;;;5.50;;
75506;SDS011;64086;43.220;27.878;2024-01-25T12:38:47;9.95;;;5.15;;
75506;SDS011;64086;43.220;27.878;2024-01-25T12:41:14;11.77;;;5.07;;
75506;SDS011;64086;43.220;27.878;2024-01-25T12:43:40;10.18;;;6.00;;
75506;SDS011;64086;43.220;27.878;2024-01-25T12:46:05;7.72;;;5.20;;
75506;SDS011;64086;43.220;27.878;2024-01-25T12:48:31;8.45;;;5.30;;
75506;SDS011;64086;43.220;27.878;2024-01-25T12:50:56;9.15;;;5.57;;
75506;SDS011;64086;43.220;27.878;2024-01-25T12:53:22;11.63;;;5.95;;
75506;SDS011;64086;43.220;27.878;2024-01-25T12:55:47;8.38;;;5.82;;
75506;SDS011;64086;43.220;27.878;2024-01-25T12:58:13;10.75;;;6.22;;
75506;SDS011;64086;43.220;27.878;2024-01-25T13:00:38;9.98;;;6.07;;
75506;SDS011;64086;43.220;27.878;2024-01-25T13:03:04;12.27;;;6.25;;
75506;SDS011;64086;43.220;27.878;2024-01-25T13:05:30;10.68;;;5.82;;
75506;SDS011;64086;43.220;27.878;2024-01-25T13:07:59;10.48;;;5.97;;
75506;SDS011;64086;43.220;27.878;2024-01-25T13:10:26;12.73;;;6.72;;
75506;SDS011;64086;43.220;27.878;2024-01-25T13:12:51;9.55;;;6.35;;
75506;SDS011;64086;43.220;27.878;2024-01-25T13:15:17;12.65;;;6.32;;
75506;SDS011;64086;43.220;27.878;2024-01-25T13:17:42;9.57;;;5.55;;
75506;SDS011;64086;43.220;27.878;2024-01-25T13:20:08;6.88;;;4.80;;
75506;SDS011;64086;43.220;27.878;2024-01-25T13:22:34;10.57;;;5.32;;
75506;SDS011;64086;43.220;27.878;2024-01-25T13:25:00;7.72;;;5.10;;
75506;SDS011;64086;43.220;27.878;2024-01-25T13:27:26;10.50;;;5.18;;
75506;SDS011;64086;43.220;27.878;2024-01-25T13:29:52;11.48;;;5.60;;
75506;SDS011;64086;43.220;27.878;2024-01-25T13:32:18;10.98;;;5.30;;
75506;SDS011;64086;43.220;27.878;2024-01-25T13:34:44;9.43;;;4.70;;
75506;SDS011;64086;43.220;27.878;2024-01-25T13:37:09;9.93;;;5.20;;
75506;SDS011;64086;43.220;27.878;2024-01-25T13:39:35;9.60;;;5.32;;
75506;SDS011;64086;43.220;27.878;2024-01-25T13:42:00;9.88;;;5.32;;
75506;SDS011;64086;43.220;27.878;2024-01-25T13:44:26;10.73;;;5.32;;
75506;SDS011;64086;43.220;27.878;2024-01-25T13:46:51;8.05;;;4.75;;
75506;SDS011;64086;43.220;27.878;2024-01-25T13:49:17;10.88;;;4.82;;
75506;SDS011;64086;43.220;27.878;2024-01-25T13:51:43;8.15;;;4.53;;
75506;SDS011;64086;43.220;27.878;2024-01-25T13:54:09;9.85;;;5.00;;
75506;SDS011;64086;43.220;27.878;2024-01-25T13:56:35;10.73;;;5.35;;
75506;SDS011;64086;43.220;27.878;2024-01-25T13:59:00;8.60;;;5.28;;
75506;SDS011;64086;43.220;27.878;2024-01-25T14:01:26;11.40;;;5.43;;
75506;SDS011;64086;43.220;27.878;2024-01-25T14:03:52;12.27;;;5.47;;
75506;SDS011;64086;43.220;27.878;2024-01-25T14:06:18;9.30;;;5.45;;
75506;SDS011;64086;43.220;27.878;2024-01-25T14:08:43;9.85;;;5.40;;
75506;SDS011;64086;43.220;27.878;2024-01-25T14:11:09;8.60;;;5.15;;